Time;durP1;ratioP1;P1;durP2;ratioP2;P2;SDS_P1;SDS_P2;PMS_P1;PMS_P2;Temp;Humidity;BMP_temperature;BMP_pressure;BME280_temperature;BME280_humidity;BME280_pressure;Samples;Min_cycle;Max_cycle;Signal;HPM_P1;HPM_P2
2022/01/25 00:27:10;;;;;;;42.97;15.15;;;;;;;;;;4800290;29;20398;-80
2022/01/25 00:32:13;;;;;;;59.65;18.98;;;;;;;;;;4799807;29;20437;-80
2022/01/25 00:34:41;;;;;;;96.50;19.90;;;;;;;;;;4800041;29;20059;-81
2022/01/25 00:37:12;;;;;;;32.28;11.05;;;;;;;;;;4799705;29;20055;-80
2022/01/25 00:39:41;;;;;;;31.13;15.15;;;;;;;;;;4799393;29;20058;-80
2022/01/25 00:42:09;;;;;;;120.15;22.48;;;;;;;;;;4800414;29;20054;-81
2022/01/25 00:44:40;;;;;;;87.38;21.95;;;;;;;;;;4799308;29;20051;-81
2022/01/25 00:47:09;;;;;;;65.20;17.23;;;;;;;;;;4813101;29;20498;-81
2022/01/25 00:49:39;;;;;;;44.85;12.25;;;;;;;;;;4801936;29;20058;-81
2022/01/25 00:52:21;;;;;;;31.83;13.32;;;;;;;;;;4799692;29;20050;-81
2022/01/25 00:54:53;;;;;;;48.47;15.45;;;;;;;;;;4799745;29;20410;-81
2022/01/25 00:57:21;;;;;;;53.70;16.50;;;;;;;;;;4813475;29;20047;-80
2022/01/25 00:59:49;;;;;;;41.53;12.40;;;;;;;;;;4816817;29;20066;-80
2022/01/25 01:02:17;;;;;;;35.15;10.77;;;;;;;;;;4813899;29;20070;-81
2022/01/25 01:04:50;;;;;;;28.92;10.75;;;;;;;;;;4799604;29;20461;-81
2022/01/25 01:07:18;;;;;;;132.40;17.20;;;;;;;;;;4799413;29;20062;-81
2022/01/25 01:30:41;;;;;;;80.55;24.13;;;;;;;;;;4819981;29;20054;-90
2022/01/25 01:41:57;;;;;;;57.55;13.57;;;;;;;;;;4786582;29;20054;-91
2022/01/25 01:44:18;;;;;;;50.83;14.80;;;;;;;;;;4797443;29;20046;-92
2022/01/25 01:47:02;;;;;;;28.13;12.05;;;;;;;;;;4785930;29;20054;-92
2022/01/25 01:49:38;;;;;;;30.83;11.45;;;;;;;;;;4797637;29;20065;-91
2022/01/25 01:52:09;;;;;;;35.38;13.30;;;;;;;;;;4821194;29;20066;-93
2022/01/25 01:54:40;;;;;;;60.33;13.60;;;;;;;;;;4807191;29;20393;-93
2022/01/25 01:57:08;;;;;;;25.05;10.88;;;;;;;;;;4782137;29;20401;-91
2022/01/25 01:59:40;;;;;;;39.58;13.95;;;;;;;;;;4767345;29;20059;-93
2022/01/25 02:02:08;;;;;;;24.27;15.40;;;;;;;;;;4783178;29;20066;-92
2022/01/25 02:04:37;;;;;;;64.60;16.75;;;;;;;;;;4797261;29;20062;-92
2022/01/25 02:07:40;;;;;;;64.03;15.57;;;;;;;;;;4767894;30;20075;-92
2022/01/25 02:10:09;;;;;;;41.50;11.40;;;;;;;;;;4768513;29;20051;-91
2022/01/25 02:12:37;;;;;;;82.95;11.98;;;;;;;;;;4782115;29;20042;-93
2022/01/25 02:15:06;;;;;;;57.20;13.00;;;;;;;;;;4773282;29;20073;-91
2022/01/25 02:17:54;;;;;;;37.25;14.90;;;;;;;;;;4787942;29;20047;-92
2022/01/25 02:23:20;;;;;;;36.70;13.48;;;;;;;;;;4788726;29;20066;-92
2022/01/25 02:25:51;;;;;;;54.97;15.90;;;;;;;;;;4817293;29;20086;-93
2022/01/25 02:28:19;;;;;;;26.35;9.23;;;;;;;;;;4788294;29;20054;-92
2022/01/25 02:30:50;;;;;;;31.80;12.07;;;;;;;;;;4802846;29;20081;-92
2022/01/25 02:33:18;;;;;;;54.85;15.27;;;;;;;;;;4802548;29;20422;-92
2022/01/25 02:36:21;;;;;;;52.95;13.50;;;;;;;;;;4802177;29;20058;-92
2022/01/25 02:38:49;;;;;;;42.38;13.98;;;;;;;;;;4787055;29;20062;-92
2022/01/25 02:41:17;;;;;;;81.93;18.95;;;;;;;;;;4800579;29;20844;-92
2022/01/25 02:43:47;;;;;;;37.92;12.07;;;;;;;;;;4785023;29;20054;-92
2022/01/25 02:49:04;;;;;;;42.75;10.65;;;;;;;;;;4785961;29;20065;-92
2022/01/25 02:51:45;;;;;;;39.30;12.98;;;;;;;;;;4786118;29;20051;-92
2022/01/25 02:54:14;;;;;;;50.25;11.02;;;;;;;;;;4786938;29;20066;-93
2022/01/25 02:56:44;;;;;;;26.17;10.68;;;;;;;;;;4786733;29;20047;-91
2022/01/25 02:59:13;;;;;;;44.17;10.95;;;;;;;;;;4768871;30;20052;-92
2022/01/25 03:01:42;;;;;;;29.50;9.38;;;;;;;;;;4783292;29;20056;-93
2022/01/25 03:04:11;;;;;;;54.15;12.77;;;;;;;;;;4768981;29;20608;-93
2022/01/25 03:06:40;;;;;;;24.60;11.05;;;;;;;;;;4769779;30;20074;-93
2022/01/25 03:09:08;;;;;;;37.78;11.27;;;;;;;;;;4784199;29;20051;-92
2022/01/25 03:11:56;;;;;;;41.13;7.88;;;;;;;;;;4787208;29;20063;-94
2022/01/25 03:15:10;;;;;;;62.03;14.30;;;;;;;;;;4788348;30;20067;-92
2022/01/25 03:17:44;;;;;;;18.23;9.98;;;;;;;;;;4783886;29;20055;-92
2022/01/25 03:20:20;;;;;;;36.35;8.57;;;;;;;;;;4783714;29;20406;-93
2022/01/25 03:25:23;;;;;;;63.65;17.98;;;;;;;;;;4781774;29;20062;-80
2022/01/25 03:27:51;;;;;;;141.93;18.13;;;;;;;;;;4778870;29;20795;-80
2022/01/25 03:30:20;;;;;;;72.70;17.00;;;;;;;;;;4793700;29;20062;-80
2022/01/25 03:32:51;;;;;;;68.30;14.25;;;;;;;;;;4781694;29;20062;-80
2022/01/25 03:35:19;;;;;;;143.63;31.08;;;;;;;;;;4782736;29;20059;-80
2022/01/25 03:37:47;;;;;;;37.78;9.25;;;;;;;;;;4787310;29;20066;-80
2022/01/25 03:40:15;;;;;;;69.75;15.48;;;;;;;;;;4800512;29;20055;-80
2022/01/25 03:42:44;;;;;;;27.33;10.05;;;;;;;;;;4800895;29;20062;-80
2022/01/25 03:45:19;;;;;;;34.50;10.20;;;;;;;;;;4800753;29;20082;-80
2022/01/25 03:50:33;;;;;;;15.90;8.02;;;;;;;;;;4800755;29;20067;-80
2022/01/25 03:53:02;;;;;;;18.20;9.05;;;;;;;;;;4800716;29;20125;-80
2022/01/25 03:55:30;;;;;;;20.40;9.48;;;;;;;;;;4800773;29;20055;-80
2022/01/25 03:57:58;;;;;;;39.25;10.15;;;;;;;;;;4800639;29;20062;-80
2022/01/25 04:00:27;;;;;;;64.22;11.85;;;;;;;;;;4800533;29;20051;-80
2022/01/25 04:03:01;;;;;;;38.83;9.50;;;;;;;;;;4800605;29;20065;-80
2022/01/25 04:05:48;;;;;;;41.75;11.13;;;;;;;;;;4800278;29;20051;-80
2022/01/25 04:08:16;;;;;;;39.67;6.55;;;;;;;;;;4813356;29;20055;-80
2022/01/25 04:10:44;;;;;;;32.28;10.25;;;;;;;;;;4800639;29;20063;-80
2022/01/25 04:13:12;;;;;;;18.50;8.32;;;;;;;;;;4798252;29;20055;-80
2022/01/25 04:15:44;;;;;;;40.10;10.30;;;;;;;;;;4800290;29;20092;-81
2022/01/25 04:18:27;;;;;;;24.88;9.60;;;;;;;;;;4800864;29;20058;-80
2022/01/25 04:21:07;;;;;;;15.07;7.97;;;;;;;;;;4800083;29;20050;-81
2022/01/25 04:26:22;;;;;;;17.75;10.65;;;;;;;;;;4800654;29;20442;-80
2022/01/25 04:28:50;;;;;;;64.35;10.32;;;;;;;;;;4799297;29;20054;-80
2022/01/25 04:31:19;;;;;;;74.82;11.07;;;;;;;;;;4800061;29;20070;-80
2022/01/25 04:56:09;;;;;;;20.10;7.65;;;;;;;;;;4798049;29;20139;-80
2022/01/25 04:59:15;;;;;;;87.80;9.80;;;;;;;;;;4798550;29;20066;-80
2022/01/25 05:02:45;;;;;;;;;;;;;;;;;;;;;
2022/01/25 05:05:56;;;;;;;26.17;6.07;;;;;;;;;;4780346;29;20047;-80
2022/01/25 05:09:12;;;;;;;64.78;9.63;;;;;;;;;;4790708;29;20043;-80
2022/01/25 05:13:14;;;;;;;65.95;10.38;;;;;;;;;;4778705;30;20050;-80
2022/01/25 05:23:30;;;;;;;49.72;8.07;;;;;;;;;;4794350;29;20079;-80
2022/01/25 05:26:01;;;;;;;32.88;6.47;;;;;;;;;;4780883;30;20059;-80
2022/01/25 05:28:29;;;;;;;26.83;7.53;;;;;;;;;;4793173;29;20081;-80
2022/01/25 05:30:57;;;;;;;73.03;7.50;;;;;;;;;;4779571;30;20494;-80
2022/01/25 05:33:25;;;;;;;35.55;12.45;;;;;;;;;;4811978;29;20142;-80
2022/01/25 05:35:53;;;;;;;50.58;9.13;;;;;;;;;;4798413;29;20062;-80
2022/01/25 05:38:21;;;;;;;30.40;7.65;;;;;;;;;;4788993;29;20067;-80
2022/01/25 05:40:58;;;;;;;31.02;9.95;;;;;;;;;;4779927;29;20070;-80
2022/01/25 05:46:17;;;;;;;49.15;9.57;;;;;;;;;;4780372;30;20070;-80
2022/01/25 05:48:48;;;;;;;34.47;9.63;;;;;;;;;;4787783;29;20058;-80
2022/01/25 05:51:16;;;;;;;45.05;10.10;;;;;;;;;;4815921;29;20081;-79
2022/01/25 05:53:44;;;;;;;46.97;9.27;;;;;;;;;;4811928;29;20602;-80
2022/01/25 05:56:12;;;;;;;49.33;8.18;;;;;;;;;;4797841;29;20058;-80
2022/01/25 05:58:40;;;;;;;102.22;13.85;;;;;;;;;;4811345;29;20054;-79
2022/01/25 06:01:08;;;;;;;27.40;7.38;;;;;;;;;;4797967;29;20546;-80
2022/01/25 06:03:40;;;;;;;49.65;6.95;;;;;;;;;;4797697;29;20066;-80
2022/01/25 06:06:08;;;;;;;;;;;;;;;;;;4798279;29;20493;-79
2022/01/25 06:08:36;;;;;;;53.60;9.70;;;;;;;;;;4797329;29;20372;-80
2022/01/25 06:11:04;;;;;;;15.55;8.02;;;;;;;;;;4805132;29;20495;-79
2022/01/25 06:13:32;;;;;;;111.53;17.80;;;;;;;;;;4779511;29;20055;-80
2022/01/25 06:16:04;;;;;;;78.72;8.93;;;;;;;;;;4779881;29;20062;-80
2022/01/25 06:18:33;;;;;;;68.70;11.10;;;;;;;;;;4783380;29;20413;-79
2022/01/25 06:21:01;;;;;;;63.13;9.80;;;;;;;;;;4793684;29;20620;-79
2022/01/25 06:23:28;;;;;;;43.20;9.48;;;;;;;;;;4787038;29;20062;-80
2022/01/25 06:25:56;;;;;;;36.42;11.18;;;;;;;;;;4796402;29;20055;-82
2022/01/25 06:28:25;;;;;;;21.67;7.25;;;;;;;;;;4796741;29;20067;-82
2022/01/25 06:30:52;;;;;;;100.97;10.43;;;;;;;;;;4797842;29;20054;-81
2022/01/25 06:33:21;;;;;;;45.58;9.52;;;;;;;;;;4797708;29;20066;-83
2022/01/25 06:35:50;;;;;;;33.75;11.27;;;;;;;;;;4796056;29;20047;-82
2022/01/25 06:38:18;;;;;;;132.45;14.80;;;;;;;;;;4789531;29;20051;-80
2022/01/25 06:40:46;;;;;;;34.78;9.90;;;;;;;;;;4797837;29;20068;-80
2022/01/25 06:43:14;;;;;;;103.13;15.07;;;;;;;;;;4797054;29;20054;-80
2022/01/25 06:45:45;;;;;;;67.20;11.05;;;;;;;;;;4798105;29;20050;-82
2022/01/25 06:48:14;;;;;;;57.13;13.30;;;;;;;;;;4779086;29;20565;-81
2022/01/25 06:50:42;;;;;;;73.60;10.80;;;;;;;;;;4784330;29;20058;-81
2022/01/25 06:53:16;;;;;;;14.95;7.07;;;;;;;;;;4779312;29;20055;-85
2022/01/25 07:10:50;;;;;;;13.20;5.82;;;;;;;;;;4773831;29;20043;-85
2022/01/25 07:17:40;;;;;;;38.55;9.43;;;;;;;;;;4778630;29;20060;-83
2022/01/25 07:20:16;;;;;;;41.03;11.57;;;;;;;;;;4781540;29;20066;-85
2022/01/25 07:22:47;;;;;;;15.18;10.40;;;;;;;;;;4782353;29;20822;-84
2022/01/25 07:25:56;;;;;;;19.40;8.50;;;;;;;;;;4784661;29;20051;-86
2022/01/25 07:31:49;;;;;;;9.98;6.68;;;;;;;;;;4772151;29;19929;-84
2022/01/25 07:34:25;;;;;;;13.85;7.88;;;;;;;;;;4761718;30;20059;-85
2022/01/25 07:37:21;;;;;;;;;;;;;;;;;;;;;
2022/01/25 07:39:53;;;;;;;24.65;8.32;;;;;;;;;;4761293;29;20052;-83
2022/01/25 07:42:24;;;;;;;14.48;7.80;;;;;;;;;;4761556;30;20100;-84
2022/01/25 07:45:25;;;;;;;13.23;8.23;;;;;;;;;;4763608;30;20067;-83
2022/01/25 07:47:54;;;;;;;12.25;7.82;;;;;;;;;;4760907;29;20068;-83
2022/01/25 07:50:25;;;;;;;13.95;7.32;;;;;;;;;;4777579;30;20404;-83
2022/01/25 07:52:54;;;;;;;14.10;10.00;;;;;;;;;;4763796;30;20050;-81
2022/01/25 07:55:22;;;;;;;17.20;10.55;;;;;;;;;;4777341;29;20062;-78
2022/01/25 07:57:50;;;;;;;19.88;7.80;;;;;;;;;;4777204;30;20055;-79
2022/01/25 08:00:21;;;;;;;15.88;10.07;;;;;;;;;;4783234;29;20086;-79
2022/01/25 08:03:09;;;;;;;14.23;8.88;;;;;;;;;;4798270;29;20050;-79
2022/01/25 08:05:57;;;;;;;13.27;7.55;;;;;;;;;;4795164;29;20058;-80
2022/01/25 08:08:41;;;;;;;13.48;8.02;;;;;;;;;;4792175;29;20050;-81
2022/01/25 08:11:36;;;;;;;11.95;6.78;;;;;;;;;;4799304;29;20062;-82
2022/01/25 08:14:48;;;;;;;12.52;8.00;;;;;;;;;;4782425;29;20059;-81
2022/01/25 08:17:58;;;;;;;19.25;7.60;;;;;;;;;;4810903;29;20050;-81
2022/01/25 08:21:26;;;;;;;9.95;8.48;;;;;;;;;;4788786;29;20401;-83
2022/01/25 08:24:29;;;;;;;11.35;6.07;;;;;;;;;;4798429;29;20047;-82
2022/01/25 08:27:03;;;;;;;8.73;6.07;;;;;;;;;;4801081;29;20059;-82
2022/01/25 08:44:02;;;;;;;10.35;7.03;;;;;;;;;;4775374;29;20059;-82
2022/01/25 08:47:41;;;;;;;8.98;6.97;;;;;;;;;;4804289;29;20038;-82
2022/01/25 08:51:09;;;;;;;8.77;6.25;;;;;;;;;;4783732;29;20043;-82
2022/01/25 08:54:16;;;;;;;10.20;7.15;;;;;;;;;;4761670;30;20396;-83
2022/01/25 08:57:50;;;;;;;12.00;6.85;;;;;;;;;;4697549;30;20053;-82
2022/01/25 09:01:18;;;;;;;7.20;4.90;;;;;;;;;;4691554;30;20060;-82
2022/01/25 09:04:09;;;;;;;14.50;7.82;;;;;;;;;;4754697;29;20056;-82
2022/01/25 09:07:10;;;;;;;8.15;4.88;;;;;;;;;;4793151;29;20065;-82
2022/01/25 09:11:02;;;;;;;;;;;;;;;;;;;;;
2022/01/25 09:14:45;;;;;;;11.82;6.85;;;;;;;;;;4809804;29;20687;-82
2022/01/25 09:17:26;;;;;;;11.13;6.57;;;;;;;;;;4800442;29;20069;-82
2022/01/25 09:20:02;;;;;;;14.50;7.70;;;;;;;;;;4778012;29;20057;-82
2022/01/25 09:22:34;;;;;;;7.95;6.70;;;;;;;;;;4781735;29;20059;-82
2022/01/25 09:25:28;;;;;;;12.23;7.73;;;;;;;;;;4796086;29;20048;-82
2022/01/25 09:28:00;;;;;;;10.00;8.43;;;;;;;;;;4794069;29;20292;-82
2022/01/25 09:30:30;;;;;;;17.08;8.05;;;;;;;;;;4799714;29;20058;-82
2022/01/25 09:33:09;;;;;;;12.48;7.63;;;;;;;;;;4800664;29;20446;-82
2022/01/25 09:35:44;;;;;;;10.00;6.22;;;;;;;;;;4800525;29;20047;-83
2022/01/25 09:38:13;;;;;;;10.27;8.57;;;;;;;;;;4810056;29;20497;-82
2022/01/25 09:40:42;;;;;;;10.95;7.90;;;;;;;;;;4803015;29;20082;-82
2022/01/25 09:43:14;;;;;;;13.85;8.32;;;;;;;;;;4799816;29;20501;-81
2022/01/25 09:45:46;;;;;;;10.85;7.68;;;;;;;;;;4800147;29;20409;-83
2022/01/25 09:48:19;;;;;;;11.88;6.85;;;;;;;;;;4792337;29;20089;-83
2022/01/25 09:50:49;;;;;;;14.68;9.05;;;;;;;;;;4800527;29;20050;-83
2022/01/25 09:53:19;;;;;;;13.65;10.70;;;;;;;;;;4798273;29;20043;-84
2022/01/25 09:55:56;;;;;;;11.00;6.35;;;;;;;;;;4798629;29;20532;-83
2022/01/25 09:58:28;;;;;;;13.43;6.75;;;;;;;;;;4799494;29;20059;-83
2022/01/25 10:01:02;;;;;;;8.75;5.43;;;;;;;;;;4798133;29;20054;-83
2022/01/25 10:03:37;;;;;;;12.02;7.43;;;;;;;;;;4799439;29;20492;-83
2022/01/25 10:06:12;;;;;;;18.35;8.60;;;;;;;;;;4800080;29;20054;-83
2022/01/25 10:08:45;;;;;;;15.27;9.90;;;;;;;;;;4799676;29;20055;-83
2022/01/25 10:11:16;;;;;;;12.07;7.68;;;;;;;;;;4795316;29;20138;-82
2022/01/25 10:13:48;;;;;;;10.63;7.05;;;;;;;;;;4781042;29;20051;-83
2022/01/25 10:16:24;;;;;;;6.97;5.32;;;;;;;;;;4791310;29;20043;-83
2022/01/25 10:18:57;;;;;;;12.05;7.65;;;;;;;;;;4802642;29;20057;-83
2022/01/25 10:21:31;;;;;;;13.60;7.90;;;;;;;;;;4816132;29;20670;-83
2022/01/25 10:23:59;;;;;;;;;;;;;;;;;;4818174;29;20053;-83
2022/01/25 10:26:32;;;;;;;13.07;9.00;;;;;;;;;;4817688;29;20426;-83
2022/01/25 10:29:20;;;;;;;10.40;6.13;;;;;;;;;;4801260;29;20095;-82
2022/01/25 10:32:09;;;;;;;10.73;9.60;;;;;;;;;;4781958;29;20048;-83
2022/01/25 10:34:41;;;;;;;12.97;8.43;;;;;;;;;;4782006;30;20082;-83
2022/01/25 10:37:12;;;;;;;17.17;10.13;;;;;;;;;;4781169;29;20293;-82
2022/01/25 10:39:42;;;;;;;15.27;9.07;;;;;;;;;;4781245;29;20066;-82
2022/01/25 10:42:20;;;;;;;12.68;7.45;;;;;;;;;;4781612;29;20047;-82
2022/01/25 10:45:09;;;;;;;14.85;7.78;;;;;;;;;;4817267;29;20433;-83
2022/01/25 10:47:39;;;;;;;15.70;8.73;;;;;;;;;;4814165;29;20055;-83
2022/01/25 10:50:13;;;;;;;11.55;6.43;;;;;;;;;;4794108;29;20043;-83
2022/01/25 10:52:42;;;;;;;13.82;8.80;;;;;;;;;;4817588;29;20054;-82
2022/01/25 10:55:10;;;;;;;11.15;7.75;;;;;;;;;;4818088;29;20054;-83
2022/01/25 10:57:39;;;;;;;12.57;9.52;;;;;;;;;;4799769;29;20050;-83
2022/01/25 11:00:30;;;;;;;11.27;6.82;;;;;;;;;;4799078;29;20058;-82
2022/01/25 11:02:58;;;;;;;14.38;9.32;;;;;;;;;;4799713;29;20054;-82
2022/01/25 11:05:30;;;;;;;14.27;11.38;;;;;;;;;;4799354;29;20058;-82
2022/01/25 11:07:58;;;;;;;;;;;;;;;;;;4798877;29;20439;-83
2022/01/25 11:10:26;;;;;;;13.93;8.80;;;;;;;;;;4799433;29;19940;-83
2022/01/25 11:13:05;;;;;;;14.45;8.68;;;;;;;;;;4798244;29;20062;-84
2022/01/25 11:15:35;;;;;;;16.33;8.63;;;;;;;;;;4794933;29;20050;-85
2022/01/25 11:18:05;;;;;;;15.00;10.05;;;;;;;;;;4803519;29;20058;-84
2022/01/25 11:20:34;;;;;;;16.88;8.98;;;;;;;;;;4816976;29;20457;-84
2022/01/25 11:23:03;;;;;;;14.35;10.10;;;;;;;;;;4817213;29;20058;-85
2022/01/25 11:25:35;;;;;;;13.52;8.70;;;;;;;;;;4817132;29;20058;-85
2022/01/25 11:28:04;;;;;;;14.48;7.45;;;;;;;;;;4816366;29;20050;-84
2022/01/25 11:30:33;;;;;;;16.08;10.75;;;;;;;;;;4805741;29;20466;-84
2022/01/25 11:33:01;;;;;;;13.40;7.03;;;;;;;;;;4798252;29;20054;-84
2022/01/25 11:35:30;;;;;;;12.27;9.90;;;;;;;;;;4798605;29;20413;-85
2022/01/25 11:37:59;;;;;;;17.10;10.88;;;;;;;;;;4798679;29;20055;-85
2022/01/25 11:40:31;;;;;;;18.73;9.02;;;;;;;;;;4797451;29;20612;-84
2022/01/25 11:43:05;;;;;;;16.27;10.57;;;;;;;;;;4798574;29;20050;-84
2022/01/25 11:45:35;;;;;;;20.33;11.80;;;;;;;;;;4798400;29;20593;-84
2022/01/25 11:48:03;;;;;;;14.73;8.25;;;;;;;;;;4798623;29;20050;-84
2022/01/25 11:50:42;;;;;;;16.77;7.78;;;;;;;;;;4799306;29;20058;-84
2022/01/25 11:53:12;;;;;;;15.48;9.15;;;;;;;;;;4799717;29;20390;-84
2022/01/25 11:55:47;;;;;;;19.58;9.55;;;;;;;;;;4801697;29;20413;-84
2022/01/25 11:58:25;;;;;;;16.73;7.50;;;;;;;;;;4804572;29;20081;-84
2022/01/25 12:00:55;;;;;;;12.77;8.75;;;;;;;;;;4819887;29;20438;-84
2022/01/25 12:03:23;;;;;;;13.10;10.52;;;;;;;;;;4820096;29;20065;-84
2022/01/25 12:06:13;;;;;;;17.17;9.82;;;;;;;;;;4820154;29;20054;-84
2022/01/25 12:11:35;;;;;;;19.13;10.90;;;;;;;;;;4810684;29;20062;-83
2022/01/25 12:14:14;;;;;;;15.98;11.40;;;;;;;;;;4801545;29;20063;-84
2022/01/25 12:16:45;;;;;;;15.05;9.05;;;;;;;;;;4801346;29;20051;-83
2022/01/25 12:19:13;;;;;;;;;;;;;;;;;;4814728;29;20065;-84
2022/01/25 12:21:48;;;;;;;13.70;9.50;;;;;;;;;;4816639;29;19928;-84
2022/01/25 12:24:19;;;;;;;14.25;9.50;;;;;;;;;;4819709;29;20703;-84
2022/01/25 12:27:00;;;;;;;18.70;10.65;;;;;;;;;;4811608;29;20059;-84
2022/01/25 12:29:32;;;;;;;18.13;11.48;;;;;;;;;;4800718;29;20067;-83
2022/01/25 12:32:26;;;;;;;18.17;10.80;;;;;;;;;;4814905;29;20058;-83
2022/01/25 12:34:58;;;;;;;14.75;10.38;;;;;;;;;;4800609;29;20063;-84
2022/01/25 12:37:44;;;;;;;22.73;10.43;;;;;;;;;;4798756;29;20705;-84
2022/01/25 12:40:24;;;;;;;19.33;11.82;;;;;;;;;;4797201;29;20063;-83
2022/01/25 12:42:58;;;;;;;19.35;11.55;;;;;;;;;;4808810;29;20054;-79
2022/01/25 12:45:27;;;;;;;20.00;10.85;;;;;;;;;;4801646;29;20089;-78
2022/01/25 12:47:57;;;;;;;22.52;13.45;;;;;;;;;;4800474;29;20043;-79
2022/01/25 12:50:26;;;;;;;22.00;11.60;;;;;;;;;;4787731;29;20403;-79
2022/01/25 12:52:54;;;;;;;18.40;11.30;;;;;;;;;;4782918;29;20066;-79
2022/01/25 12:55:27;;;;;;;25.00;14.32;;;;;;;;;;4795636;29;20405;-80
2022/01/25 12:57:56;;;;;;;24.42;13.15;;;;;;;;;;4794223;29;20066;-80
2022/01/25 13:00:33;;;;;;;17.48;10.00;;;;;;;;;;4787804;29;20055;-79
2022/01/25 13:03:33;;;;;;;21.08;11.32;;;;;;;;;;4783387;30;20051;-79
2022/01/25 13:06:22;;;;;;;23.67;13.15;;;;;;;;;;4779268;29;20677;-78
2022/01/25 13:08:59;;;;;;;22.15;14.60;;;;;;;;;;4796009;29;20696;-78
2022/01/25 13:11:37;;;;;;;21.35;13.27;;;;;;;;;;4800104;29;20646;-79
2022/01/25 13:14:19;;;;;;;18.35;11.93;;;;;;;;;;4801999;29;20055;-81
2022/01/25 13:16:51;;;;;;;20.77;14.88;;;;;;;;;;4813961;29;20577;-78
2022/01/25 13:19:24;;;;;;;20.42;14.25;;;;;;;;;;4813652;29;20055;-78
2022/01/25 13:22:00;;;;;;;20.02;11.60;;;;;;;;;;4819260;29;20093;-79
2022/01/25 13:24:37;;;;;;;29.55;12.95;;;;;;;;;;4818306;29;20054;-78
2022/01/25 13:27:12;;;;;;;26.45;15.27;;;;;;;;;;4819093;29;20069;-78
2022/01/25 13:32:53;;;;;;;19.92;11.63;;;;;;;;;;4794311;29;20696;-78
2022/01/25 13:35:28;;;;;;;21.27;14.30;;;;;;;;;;4800437;29;20069;-80
2022/01/25 13:38:02;;;;;;;19.95;12.50;;;;;;;;;;4794007;29;20510;-79
2022/01/25 13:40:38;;;;;;;25.60;16.02;;;;;;;;;;4781982;29;20066;-80
2022/01/25 13:43:31;;;;;;;21.58;10.13;;;;;;;;;;4784136;29;20454;-79
2022/01/25 13:46:04;;;;;;;23.58;13.43;;;;;;;;;;4811614;29;20055;-79
2022/01/25 13:48:34;;;;;;;16.67;11.95;;;;;;;;;;4798913;29;20066;-79
2022/01/25 13:51:07;;;;;;;24.13;13.23;;;;;;;;;;4800602;29;20061;-80
2022/01/25 13:53:36;;;;;;;23.08;12.48;;;;;;;;;;4799355;29;20055;-79
2022/01/25 13:56:06;;;;;;;20.17;10.77;;;;;;;;;;4799639;29;20085;-79
2022/01/25 13:58:40;;;;;;;33.95;17.15;;;;;;;;;;4799565;29;20070;-80
2022/01/25 14:01:10;;;;;;;25.83;15.55;;;;;;;;;;4799846;29;20062;-79
2022/01/25 14:03:39;;;;;;;19.60;12.73;;;;;;;;;;4799468;29;20055;-79
2022/01/25 14:06:22;;;;;;;18.13;10.75;;;;;;;;;;4782367;30;20399;-81
2022/01/25 14:08:51;;;;;;;28.02;12.48;;;;;;;;;;4768021;29;20519;-79
2022/01/25 14:11:48;;;;;;;17.75;13.05;;;;;;;;;;4796622;29;20062;-79
2022/01/25 14:25:14;;;;;;;26.48;11.48;;;;;;;;;;4799122;29;20142;-80
2022/01/25 14:27:51;;;;;;;26.23;13.15;;;;;;;;;;4797341;29;20066;-80
2022/01/25 14:30:19;;;;;;;25.77;14.02;;;;;;;;;;4798431;29;20066;-80
2022/01/25 14:33:02;;;;;;;27.38;13.68;;;;;;;;;;4799076;29;20815;-80
2022/01/25 14:35:32;;;;;;;26.27;14.07;;;;;;;;;;4798764;29;20421;-79
2022/01/25 14:38:05;;;;;;;18.17;9.80;;;;;;;;;;4796295;29;20498;-78
2022/01/25 14:40:33;;;;;;;28.13;11.20;;;;;;;;;;4797235;29;20054;-78
2022/01/25 14:43:03;;;;;;;21.02;12.27;;;;;;;;;;4797682;29;20409;-78
2022/01/25 14:45:31;;;;;;;24.67;13.48;;;;;;;;;;4798750;29;20054;-78
2022/01/25 14:48:01;;;;;;;21.75;10.23;;;;;;;;;;4798568;29;20059;-79
2022/01/25 14:50:32;;;;;;;22.90;13.38;;;;;;;;;;4785336;29;20059;-78
2022/01/25 14:53:12;;;;;;;26.77;17.05;;;;;;;;;;4780957;29;20066;-78
2022/01/25 14:55:41;;;;;;;24.60;12.77;;;;;;;;;;4782968;29;20054;-78
2022/01/25 15:00:45;;;;;;;29.70;15.00;;;;;;;;;;4799268;29;20051;-78
2022/01/25 15:03:13;;;;;;;17.63;11.00;;;;;;;;;;4799606;29;20051;-77
2022/01/25 15:05:41;;;;;;;19.73;12.77;;;;;;;;;;4798697;29;20059;-78
2022/01/25 15:08:09;;;;;;;44.50;17.10;;;;;;;;;;4798831;29;20058;-78
2022/01/25 15:10:43;;;;;;;22.98;15.18;;;;;;;;;;4799466;29;20050;-79
2022/01/25 15:13:23;;;;;;;21.73;14.77;;;;;;;;;;4798621;29;20588;-79
2022/01/25 15:15:55;;;;;;;20.83;11.85;;;;;;;;;;4799016;29;20858;-79
2022/01/25 15:18:28;;;;;;;19.92;10.93;;;;;;;;;;4819217;29;20065;-79
2022/01/25 15:20:57;;;;;;;23.85;12.35;;;;;;;;;;4816712;29;20428;-79
2022/01/25 15:23:26;;;;;;;21.55;12.05;;;;;;;;;;4816599;29;20516;-79
2022/01/25 15:25:58;;;;;;;23.40;12.05;;;;;;;;;;4817662;29;20053;-79
2022/01/25 15:28:37;;;;;;;20.60;12.77;;;;;;;;;;4817625;29;20077;-79
2022/01/25 15:31:06;;;;;;;24.75;15.68;;;;;;;;;;4821020;29;20058;-79
2022/01/25 15:33:35;;;;;;;27.48;13.80;;;;;;;;;;4820237;29;20042;-79
2022/01/25 15:36:06;;;;;;;25.55;12.30;;;;;;;;;;4820397;29;20054;-79
2022/01/25 15:38:35;;;;;;;20.30;13.30;;;;;;;;;;4799310;29;20058;-79
2022/01/25 15:41:08;;;;;;;12.10;8.23;;;;;;;;;;4784094;29;20059;-79
2022/01/25 15:43:52;;;;;;;21.40;12.48;;;;;;;;;;4784059;29;20059;-79
2022/01/25 15:46:34;;;;;;;23.15;7.72;;;;;;;;;;4819883;29;20067;-79
2022/01/25 15:49:04;;;;;;;14.93;10.57;;;;;;;;;;4819532;29;20046;-79
2022/01/25 15:51:33;;;;;;;22.77;17.00;;;;;;;;;;4820042;29;20071;-79
2022/01/25 15:54:02;;;;;;;25.13;10.82;;;;;;;;;;4803673;29;20565;-79
2022/01/25 15:56:30;;;;;;;24.23;13.95;;;;;;;;;;4801749;29;20051;-79
2022/01/25 15:58:58;;;;;;;25.60;12.45;;;;;;;;;;4801087;29;20078;-79
2022/01/25 16:01:50;;;;;;;34.33;17.25;;;;;;;;;;4801385;29;20098;-79
2022/01/25 16:04:20;;;;;;;31.88;15.25;;;;;;;;;;4801876;29;20051;-79
2022/01/25 16:06:48;;;;;;;27.33;12.38;;;;;;;;;;4802755;29;20080;-79
2022/01/25 16:09:16;;;;;;;39.90;16.15;;;;;;;;;;4801549;29;20078;-79
2022/01/25 16:11:46;;;;;;;36.33;13.57;;;;;;;;;;4801743;29;20740;-80
2022/01/25 16:14:14;;;;;;;25.75;13.27;;;;;;;;;;4801729;29;20069;-82
2022/01/25 16:16:44;;;;;;;17.98;12.65;;;;;;;;;;4801792;29;20059;-81
2022/01/25 16:19:19;;;;;;;16.15;10.55;;;;;;;;;;4813344;29;20069;-81
2022/01/25 16:21:47;;;;;;;16.55;9.93;;;;;;;;;;4820754;29;20088;-83
2022/01/25 16:24:15;;;;;;;14.75;8.23;;;;;;;;;;4800967;29;20054;-81
2022/01/25 16:26:43;;;;;;;16.40;11.07;;;;;;;;;;4801379;29;20074;-80
2022/01/25 16:29:11;;;;;;;22.38;15.45;;;;;;;;;;4807301;29;20442;-82
2022/01/25 16:31:42;;;;;;;20.05;11.35;;;;;;;;;;4785087;29;20051;-80
2022/01/25 16:34:11;;;;;;;18.80;12.83;;;;;;;;;;4796077;29;20062;-81
2022/01/25 16:36:39;;;;;;;27.73;13.35;;;;;;;;;;4801260;29;20292;-81
2022/01/25 16:39:09;;;;;;;28.48;13.02;;;;;;;;;;4799804;29;20059;-80
2022/01/25 16:41:37;;;;;;;24.42;14.88;;;;;;;;;;4794427;29;20063;-81
2022/01/25 16:44:05;;;;;;;28.50;17.30;;;;;;;;;;4800113;29;20067;-80
2022/01/25 16:46:34;;;;;;;25.00;14.27;;;;;;;;;;4799914;29;20055;-82
2022/01/25 16:49:05;;;;;;;28.02;13.73;;;;;;;;;;4797839;29;20073;-81
2022/01/25 16:51:36;;;;;;;49.97;16.25;;;;;;;;;;4794944;29;20050;-82
2022/01/25 16:54:05;;;;;;;42.42;20.73;;;;;;;;;;4811543;29;20572;-82
2022/01/25 16:56:33;;;;;;;31.75;16.55;;;;;;;;;;4792829;29;20054;-81
2022/01/25 16:59:06;;;;;;;33.60;15.23;;;;;;;;;;4798870;29;20066;-81
2022/01/25 17:01:35;;;;;;;47.65;19.92;;;;;;;;;;4800437;29;20058;-81
2022/01/25 17:04:05;;;;;;;20.85;14.18;;;;;;;;;;4796545;29;20054;-80
2022/01/25 17:06:33;;;;;;;26.65;12.27;;;;;;;;;;4799936;29;20047;-78
2022/01/25 17:09:02;;;;;;;29.40;16.85;;;;;;;;;;4800155;29;20494;-78
2022/01/25 17:11:31;;;;;;;38.40;13.73;;;;;;;;;;4794850;29;20827;-79
2022/01/25 17:14:01;;;;;;;35.20;10.35;;;;;;;;;;4799432;29;20051;-79
2022/01/25 17:16:31;;;;;;;41.75;20.55;;;;;;;;;;4801088;29;20046;-79
2022/01/25 17:19:01;;;;;;;31.77;16.17;;;;;;;;;;4794751;29;20614;-79
2022/01/25 17:21:49;;;;;;;40.63;15.57;;;;;;;;;;4805221;29;20055;-79
2022/01/25 17:24:17;;;;;;;22.85;11.90;;;;;;;;;;4794315;29;20055;-81
2022/01/25 17:26:45;;;;;;;26.17;13.27;;;;;;;;;;4800851;29;20078;-82
2022/01/25 17:29:13;;;;;;;28.15;16.25;;;;;;;;;;4799322;29;20050;-80
2022/01/25 17:31:41;;;;;;;24.45;11.80;;;;;;;;;;4800441;29;20065;-79
2022/01/25 17:34:10;;;;;;;30.35;18.23;;;;;;;;;;4800847;29;20066;-78
2022/01/25 17:36:39;;;;;;;36.08;16.52;;;;;;;;;;4800297;29;20065;-79
2022/01/25 17:39:08;;;;;;;24.05;12.93;;;;;;;;;;4792408;29;20066;-79
2022/01/25 17:41:39;;;;;;;30.08;14.75;;;;;;;;;;4799354;29;20055;-79
2022/01/25 17:44:09;;;;;;;42.85;19.42;;;;;;;;;;4799687;29;20072;-79
2022/01/25 17:46:41;;;;;;;37.17;21.02;;;;;;;;;;4800656;29;20054;-79
2022/01/25 17:49:10;;;;;;;32.63;15.90;;;;;;;;;;4792790;29;20054;-80
2022/01/25 17:51:43;;;;;;;34.20;16.27;;;;;;;;;;4795827;29;20406;-80
2022/01/25 17:54:16;;;;;;;32.38;21.40;;;;;;;;;;4801116;29;20050;-79